createdAt,value
2018-01-14T00:00:00.739Z,68.00
2018-01-14T00:02:26.684Z,68.30
2018-01-14T00:04:52.612Z,68.30
2018-01-14T00:07:18.524Z,68.30
2018-01-14T00:09:44.454Z,68.40
2018-01-14T00:12:10.369Z,68.60
2018-01-14T00:14:36.290Z,68.70
2018-01-14T00:17:02.263Z,68.80
2018-01-14T00:19:28.205Z,68.80
2018-01-14T00:21:54.144Z,68.40
2018-01-14T00:24:20.060Z,68.40
2018-01-14T00:26:45.984Z,68.50
2018-01-14T00:29:11.888Z,68.70
2018-01-14T00:31:37.804Z,68.40
2018-01-14T00:34:03.712Z,68.60
2018-01-14T00:36:29.636Z,68.60
2018-01-14T00:38:55.587Z,68.30
2018-01-14T00:41:21.536Z,68.50
2018-01-14T00:43:47.448Z,68.50
2018-01-14T00:46:13.360Z,68.60
2018-01-14T00:48:39.277Z,68.50
2018-01-14T00:51:05.200Z,68.30
2018-01-14T00:53:31.100Z,68.30
2018-01-14T00:55:57.069Z,68.20
2018-01-14T00:58:22.977Z,68.30
2018-01-14T01:00:49.644Z,67.70
2018-01-14T01:03:16.303Z,68.00
2018-01-14T01:05:42.224Z,67.90
2018-01-14T01:08:08.140Z,67.80
2018-01-14T01:10:34.056Z,67.50
2018-01-14T01:12:59.977Z,67.70
2018-01-14T01:15:25.908Z,67.70
2018-01-14T01:17:51.824Z,67.90
2018-01-14T01:20:17.744Z,68.00
2018-01-14T01:22:43.657Z,68.00
2018-01-14T01:25:10.324Z,68.10
2018-01-14T01:27:36.228Z,68.00
2018-01-14T01:30:02.170Z,68.00
2018-01-14T01:32:28.096Z,68.10
2018-01-14T01:34:54.041Z,68.20
2018-01-14T01:37:20.693Z,68.30
2018-01-14T01:39:47.352Z,68.60
2018-01-14T01:42:14.013Z,68.50
2018-01-14T01:44:40.664Z,68.80
2018-01-14T01:47:06.588Z,68.80
2018-01-14T01:49:33.247Z,68.90
2018-01-14T01:51:59.910Z,68.90
2018-01-14T01:54:25.865Z,68.90
2018-01-14T01:56:51.780Z,68.80
2018-01-14T01:59:17.689Z,69.00
2018-01-14T02:01:44.343Z,69.10
2018-01-14T02:04:10.989Z,69.00
2018-01-14T02:06:37.661Z,69.10
2018-01-14T02:09:03.564Z,69.00
2018-01-14T02:11:29.491Z,69.80
2018-01-14T02:13:55.425Z,69.50
2018-01-14T02:16:21.348Z,69.30
2018-01-14T02:18:47.260Z,69.60
2018-01-14T02:21:13.180Z,69.20
2018-01-14T02:23:39.081Z,69.10
2018-01-14T02:26:05.739Z,69.40
2018-01-14T02:28:32.389Z,69.10
2018-01-14T02:30:59.076Z,69.00
2018-01-14T02:33:25.021Z,68.90
2018-01-14T02:35:50.947Z,69.00
2018-01-14T02:38:16.872Z,69.30
2018-01-14T02:40:42.791Z,69.20
2018-01-14T02:43:08.713Z,69.20
2018-01-14T02:45:35.384Z,68.80
2018-01-14T02:48:01.301Z,68.80
2018-01-14T02:50:27.254Z,68.60
2018-01-14T02:52:53.181Z,68.70
2018-01-14T02:55:19.101Z,68.50
2018-01-14T02:57:45.031Z,68.20
2018-01-14T03:00:11.698Z,68.10
2018-01-14T03:02:37.632Z,68.10
2018-01-14T03:05:03.559Z,68.10
2018-01-14T03:07:29.498Z,67.70
2018-01-14T03:09:55.430Z,67.80
2018-01-14T03:12:21.353Z,67.70
2018-01-14T03:14:48.019Z,68.40
2018-01-14T03:17:13.953Z,68.40
2018-01-14T03:19:39.879Z,68.00
2018-01-14T03:22:06.570Z,67.90
2018-01-14T03:24:32.481Z,67.70
2018-01-14T03:26:58.425Z,67.60
2018-01-14T03:29:24.426Z,67.80
2018-01-14T03:31:51.091Z,67.30
2018-01-14T03:34:16.996Z,67.30
2018-01-14T03:36:42.917Z,67.40
2018-01-14T03:39:08.941Z,67.60
2018-01-14T03:41:34.856Z,67.30
2018-01-14T03:44:00.781Z,67.60
2018-01-14T03:46:26.738Z,67.20
2018-01-14T03:48:52.658Z,67.20
2018-01-14T03:51:18.572Z,67.30
2018-01-14T03:53:44.490Z,66.90
2018-01-14T03:56:11.141Z,67.70
2018-01-14T03:58:37.800Z,66.80
2018-01-14T04:01:03.734Z,66.80
2018-01-14T04:03:29.666Z,66.70
2018-01-14T04:05:56.357Z,67.50
2018-01-14T04:08:22.301Z,67.50
2018-01-14T04:10:48.245Z,66.50
2018-01-14T04:13:14.191Z,66.90
2018-01-14T04:15:40.125Z,67.40
2018-01-14T04:18:06.062Z,67.40
2018-01-14T04:20:31.998Z,67.00
2018-01-14T04:22:57.963Z,67.40
2018-01-14T04:25:23.928Z,68.30
2018-01-14T04:27:49.860Z,67.50
2018-01-14T04:30:15.781Z,67.50
2018-01-14T04:32:41.702Z,67.30
2018-01-14T04:35:07.643Z,67.20
2018-01-14T04:37:33.580Z,67.20
2018-01-14T04:39:59.547Z,67.20
2018-01-14T04:42:25.501Z,67.20
2018-01-14T04:44:51.691Z,67.60
2018-01-14T04:47:17.622Z,67.70
2018-01-14T04:49:43.554Z,67.60
2018-01-14T04:52:09.491Z,67.70
2018-01-14T04:54:35.458Z,67.70
2018-01-14T04:57:01.400Z,67.60
2018-01-14T04:59:27.321Z,67.60
2018-01-14T05:01:53.262Z,67.80
2018-01-14T05:04:19.188Z,67.50
2018-01-14T05:06:45.113Z,67.80
2018-01-14T05:09:11.038Z,67.50
2018-01-14T05:11:36.970Z,67.60
2018-01-14T05:14:02.894Z,67.90
2018-01-14T05:16:28.854Z,67.90
2018-01-14T05:18:54.826Z,67.90
2018-01-14T05:21:21.496Z,68.00
2018-01-14T05:23:48.154Z,67.60
2018-01-14T05:26:14.822Z,67.60
2018-01-14T05:28:40.736Z,67.50
2018-01-14T05:31:07.407Z,67.70
2018-01-14T05:33:33.337Z,67.60
2018-01-14T05:35:59.296Z,67.00
2018-01-14T05:38:25.254Z,67.40
2018-01-14T05:40:52.666Z,67.80
2018-01-14T05:43:18.587Z,67.80
2018-01-14T05:45:45.278Z,67.90
2018-01-14T05:48:11.199Z,67.80
2018-01-14T05:50:37.113Z,67.60
2018-01-14T05:53:03.786Z,67.80
2018-01-14T05:55:29.744Z,67.70
2018-01-14T05:57:55.696Z,67.70
2018-01-14T06:00:21.632Z,67.00
2018-01-14T06:02:47.569Z,67.00
2018-01-14T06:05:13.498Z,67.10
2018-01-14T06:07:39.429Z,67.30
2018-01-14T06:10:05.359Z,67.20
2018-01-14T06:12:31.288Z,67.60
2018-01-14T06:14:57.245Z,67.10
2018-01-14T06:17:23.929Z,66.60
2018-01-14T06:19:49.841Z,66.60
2018-01-14T06:22:16.518Z,66.70
2018-01-14T06:24:42.443Z,66.60
2018-01-14T06:27:09.126Z,66.90
2018-01-14T06:29:35.045Z,66.80
2018-01-14T06:32:00.977Z,66.90
2018-01-14T06:34:26.919Z,66.80
2018-01-14T06:36:52.844Z,66.90
2018-01-14T06:39:18.753Z,66.60
2018-01-14T06:41:45.414Z,67.40
2018-01-14T06:44:12.082Z,67.20
2018-01-14T06:46:38.012Z,67.00
2018-01-14T06:49:03.939Z,66.80
2018-01-14T06:51:30.619Z,66.10
2018-01-14T06:53:56.560Z,66.10
2018-01-14T06:56:22.494Z,65.90
2018-01-14T06:58:48.408Z,66.40
2018-01-14T07:01:14.338Z,66.50
2018-01-14T07:03:40.257Z,66.80
2018-01-14T07:06:06.921Z,65.70
2018-01-14T07:08:32.837Z,65.70
2018-01-14T07:10:59.518Z,65.70
2018-01-14T07:13:25.474Z,65.50
2018-01-14T07:15:51.393Z,66.00
2018-01-14T07:18:17.331Z,66.30
2018-01-14T07:20:43.250Z,66.30
2018-01-14T07:23:09.182Z,66.10
2018-01-14T07:25:35.097Z,66.10
2018-01-14T07:28:01.775Z,65.70
2018-01-14T07:30:27.720Z,65.70
2018-01-14T07:32:53.685Z,65.90
2018-01-14T07:35:19.605Z,65.60
2018-01-14T07:37:45.537Z,65.50
2018-01-14T07:40:11.458Z,65.50
2018-01-14T07:42:37.389Z,65.50
2018-01-14T07:45:03.313Z,65.50
2018-01-14T07:47:29.268Z,65.50
2018-01-14T07:49:55.234Z,65.50
2018-01-14T07:52:21.916Z,66.20
2018-01-14T07:54:47.829Z,65.40
2018-01-14T07:57:13.758Z,65.30
2018-01-14T07:59:39.677Z,65.50
2018-01-14T08:02:05.605Z,66.40
2018-01-14T08:04:31.811Z,65.60
2018-01-14T08:06:57.790Z,65.30
2018-01-14T08:09:23.768Z,65.10
2018-01-14T08:11:49.698Z,65.10
2018-01-14T08:14:15.617Z,64.90
2018-01-14T08:16:42.307Z,64.70
2018-01-14T08:19:08.238Z,64.60
2018-01-14T08:21:34.165Z,64.70
2018-01-14T08:24:00.091Z,64.80
2018-01-14T08:26:33.005Z,64.40
2018-01-14T08:28:58.946Z,65.40
2018-01-14T08:31:24.888Z,64.10
2018-01-14T08:33:50.807Z,64.20
2018-01-14T08:36:16.734Z,63.90
2018-01-14T08:38:42.662Z,63.90
2018-01-14T08:41:08.582Z,64.50
2018-01-14T08:43:34.516Z,63.90
2018-01-14T08:46:01.174Z,63.70
2018-01-14T08:48:27.869Z,63.70
2018-01-14T08:50:53.811Z,63.70
2018-01-14T08:53:19.721Z,63.40
2018-01-14T08:55:45.648Z,63.40
2018-01-14T08:58:11.568Z,63.30
2018-01-14T09:00:37.499Z,62.60
2018-01-14T09:03:03.433Z,62.20
2018-01-14T09:05:29.384Z,62.50
2018-01-14T09:07:55.339Z,62.50
2018-01-14T09:10:21.266Z,62.60
2018-01-14T09:12:47.192Z,62.00
2018-01-14T09:15:13.118Z,62.00
2018-01-14T09:17:39.048Z,61.20
2018-01-14T09:20:04.978Z,61.70
2018-01-14T09:22:30.896Z,61.50
2018-01-14T09:24:57.606Z,62.00
2018-01-14T09:27:23.556Z,61.90
2018-01-14T09:29:49.477Z,61.20
2018-01-14T09:32:15.393Z,61.60
2018-01-14T09:34:41.310Z,61.50
2018-01-14T09:37:07.242Z,61.20
2018-01-14T09:39:33.165Z,60.60
2018-01-14T09:41:59.890Z,61.30
2018-01-14T09:44:26.587Z,61.40
2018-01-14T09:46:52.534Z,61.10
2018-01-14T09:49:18.449Z,60.40
2018-01-14T09:51:44.365Z,60.30
2018-01-14T09:54:10.294Z,60.30
2018-01-14T09:56:36.955Z,59.40
2018-01-14T09:59:02.878Z,59.30
2018-01-14T10:01:29.586Z,59.50
2018-01-14T10:03:55.546Z,59.50
2018-01-14T10:06:22.200Z,58.90
2018-01-14T10:08:48.127Z,59.30
2018-01-14T10:11:14.057Z,58.90
2018-01-14T10:13:39.982Z,58.80
2018-01-14T10:16:05.900Z,58.80
2018-01-14T10:18:31.834Z,59.40
2018-01-14T10:20:57.826Z,59.80
2018-01-14T10:23:23.861Z,59.50
2018-01-14T10:25:49.786Z,59.40
2018-01-14T10:28:16.462Z,59.60
2018-01-14T10:30:42.410Z,59.60
2018-01-14T10:33:08.357Z,59.10
2018-01-14T10:35:34.275Z,59.00
2018-01-14T10:38:01.747Z,59.60
2018-01-14T10:40:27.687Z,59.60
2018-01-14T10:42:53.644Z,59.40
2018-01-14T10:45:19.586Z,59.20
2018-01-14T10:47:45.509Z,59.50
2018-01-14T10:50:11.430Z,59.10
2018-01-14T10:52:37.358Z,59.20
2018-01-14T10:55:03.376Z,59.40
2018-01-14T10:57:29.314Z,59.40
2018-01-14T10:59:55.253Z,59.10
2018-01-14T11:02:21.183Z,58.70
2018-01-14T11:04:47.105Z,58.60
2018-01-14T11:07:13.286Z,58.40
2018-01-14T11:09:39.211Z,58.50
2018-01-14T11:12:05.139Z,58.50
2018-01-14T11:14:31.074Z,58.60
2018-01-14T11:16:57.022Z,59.10
2018-01-14T11:19:22.940Z,58.70
2018-01-14T11:21:48.863Z,58.30
2018-01-14T11:24:14.790Z,58.40
2018-01-14T11:26:40.722Z,58.30
2018-01-14T11:29:06.653Z,58.50
2018-01-14T11:31:32.578Z,58.70
2018-01-14T11:33:59.281Z,58.60
2018-01-14T11:36:25.224Z,58.60
2018-01-14T11:38:51.155Z,57.20
2018-01-14T11:41:17.119Z,57.00
2018-01-14T11:43:43.803Z,57.50
2018-01-14T11:46:09.755Z,57.40
2018-01-14T11:48:35.670Z,57.00
2018-01-14T11:51:01.603Z,57.10
2018-01-14T11:53:27.842Z,57.20
2018-01-14T11:55:53.782Z,56.70
2018-01-14T11:58:19.738Z,56.80
2018-01-14T12:00:45.671Z,56.40
2018-01-14T12:03:11.589Z,56.40
2018-01-14T12:05:37.514Z,56.50
2018-01-14T12:08:03.454Z,56.40
2018-01-14T12:10:29.379Z,56.00
2018-01-14T12:12:55.319Z,56.40
2018-01-14T12:15:21.253Z,56.20
2018-01-14T12:17:47.222Z,55.70
2018-01-14T12:20:13.146Z,56.00
2018-01-14T12:22:39.282Z,56.60
2018-01-14T12:25:05.209Z,56.20
2018-01-14T12:27:31.187Z,56.00
2018-01-14T12:29:57.361Z,55.60
2018-01-14T12:32:23.298Z,56.00
2018-01-14T12:34:52.065Z,56.40
2018-01-14T12:37:18.855Z,55.60
2018-01-14T12:39:44.814Z,55.50
2018-01-14T12:42:10.713Z,56.10
2018-01-14T12:44:43.514Z,56.00
2018-01-14T12:47:09.434Z,55.20
2018-01-14T12:49:35.402Z,55.00
2018-01-14T12:52:01.335Z,54.30
2018-01-14T12:54:27.270Z,54.30
2018-01-14T12:56:53.238Z,54.10
2018-01-14T12:59:19.212Z,54.00
2018-01-14T13:01:45.138Z,53.20
2018-01-14T13:04:11.802Z,54.40
2018-01-14T13:06:37.715Z,54.40
2018-01-14T13:09:04.391Z,54.90
2018-01-14T13:11:30.314Z,54.80
2018-01-14T13:13:56.259Z,55.30
2018-01-14T13:16:22.232Z,55.50
2018-01-14T13:18:48.204Z,55.20
2018-01-14T13:21:14.860Z,55.40
2018-01-14T13:23:41.529Z,55.40
2018-01-14T13:26:07.437Z,55.30
2018-01-14T13:28:34.321Z,55.10
2018-01-14T13:31:00.241Z,55.10
2018-01-14T13:33:26.911Z,55.90
2018-01-14T13:35:52.854Z,55.80
2018-01-14T13:38:18.820Z,55.10
2018-01-14T13:40:44.770Z,54.80
2018-01-14T13:43:10.710Z,54.90
2018-01-14T13:45:36.630Z,54.90
2018-01-14T13:48:02.549Z,55.00
2018-01-14T13:50:28.479Z,54.90
2018-01-14T13:52:54.423Z,54.50
2018-01-14T13:55:20.369Z,54.80
2018-01-14T13:57:46.304Z,55.40
2018-01-14T14:00:12.250Z,55.30
2018-01-14T14:02:38.160Z,54.50
2018-01-14T14:05:04.095Z,55.00
2018-01-14T14:07:30.019Z,55.00
2018-01-14T14:09:55.949Z,54.90
2018-01-14T14:12:21.890Z,54.90
2018-01-14T14:14:47.870Z,54.80
2018-01-14T14:17:14.542Z,55.00
2018-01-14T14:19:40.479Z,55.00
2018-01-14T14:22:06.389Z,55.30
2018-01-14T14:24:32.303Z,55.10
2018-01-14T14:26:58.233Z,55.40
2018-01-14T14:29:24.216Z,55.60
2018-01-14T14:31:50.200Z,55.10
2018-01-14T14:34:16.234Z,55.90
2018-01-14T14:36:42.161Z,55.70
2018-01-14T14:39:08.117Z,55.80
2018-01-14T14:41:34.035Z,56.10
2018-01-14T14:43:59.961Z,56.20
2018-01-14T14:46:25.887Z,55.20
2018-01-14T14:48:51.906Z,55.70
2018-01-14T14:51:17.860Z,56.00
2018-01-14T14:53:43.810Z,55.80
2018-01-14T14:56:09.742Z,56.40
2018-01-14T14:58:35.720Z,56.60
2018-01-14T15:01:01.591Z,56.60
2018-01-14T15:03:27.512Z,56.80
2018-01-14T15:05:53.461Z,57.10
2018-01-14T15:08:19.414Z,57.40
2018-01-14T15:10:45.342Z,57.20
2018-01-14T15:13:11.258Z,57.30
2018-01-14T15:15:37.187Z,57.50
2018-01-14T15:18:03.134Z,57.60
2018-01-14T15:20:29.062Z,57.30
2018-01-14T15:22:54.969Z,57.10
2018-01-14T15:25:20.901Z,57.50
2018-01-14T15:27:46.887Z,57.50
2018-01-14T15:30:12.817Z,57.80
2018-01-14T15:32:38.737Z,57.90
2018-01-14T15:35:04.663Z,57.80
2018-01-14T15:37:30.581Z,57.70
2018-01-14T15:39:56.498Z,57.50
2018-01-14T15:42:22.474Z,56.60
2018-01-14T15:44:48.423Z,57.30
2018-01-14T15:47:14.353Z,57.90
2018-01-14T15:49:40.282Z,58.10
2018-01-14T15:52:06.198Z,58.60
2018-01-14T15:54:32.115Z,58.70
2018-01-14T15:56:58.040Z,58.90
2018-01-14T15:59:23.962Z,59.10
2018-01-14T16:01:50.635Z,58.70
2018-01-14T16:04:16.577Z,58.70
2018-01-14T16:06:42.493Z,58.90
2018-01-14T16:09:08.419Z,59.20
2018-01-14T16:11:35.079Z,59.10
2018-01-14T16:14:01.008Z,59.10
2018-01-14T16:16:26.937Z,58.80
2018-01-14T16:18:53.629Z,58.90
2018-01-14T16:21:19.557Z,58.90
2018-01-14T16:23:45.491Z,58.70
2018-01-14T16:26:11.424Z,58.30
2018-01-14T16:28:37.341Z,57.90
2018-01-14T16:31:03.268Z,58.20
2018-01-14T16:33:29.919Z,58.30
2018-01-14T16:35:55.846Z,58.30
2018-01-14T16:38:22.523Z,57.70
2018-01-14T16:40:48.567Z,57.70
2018-01-14T16:43:14.494Z,58.10
2018-01-14T16:45:40.417Z,58.50
2018-01-14T16:48:06.335Z,58.70
2018-01-14T16:50:32.990Z,60.10
2018-01-14T16:52:59.641Z,60.30
2018-01-14T16:55:26.305Z,61.20
2018-01-14T16:57:52.255Z,61.10
2018-01-14T17:00:18.227Z,62.30
2018-01-14T17:02:44.145Z,62.00
2018-01-14T17:05:10.373Z,62.00
2018-01-14T17:07:36.303Z,61.90
2018-01-14T17:10:02.243Z,62.30
2018-01-14T17:12:35.086Z,62.20
2018-01-14T17:15:01.749Z,63.70
2018-01-14T17:17:28.405Z,64.00
2018-01-14T17:19:55.076Z,64.70
2018-01-14T17:22:21.006Z,64.70
2018-01-14T17:24:46.987Z,65.20
2018-01-14T17:27:12.906Z,65.20
2018-01-14T17:29:38.839Z,65.30
2018-01-14T17:32:04.763Z,65.40
2018-01-14T17:34:30.730Z,65.80
2018-01-14T17:36:56.650Z,66.10
2018-01-14T17:39:22.585Z,65.70
2018-01-14T17:41:48.564Z,64.90
2018-01-14T17:44:15.971Z,66.60
2018-01-14T17:46:41.907Z,66.50
2018-01-14T17:49:07.830Z,66.70
2018-01-14T17:51:33.762Z,66.20
2018-01-14T17:53:59.689Z,66.10
2018-01-14T17:56:25.638Z,66.70
2018-01-14T17:58:51.619Z,67.40
2018-01-14T18:01:17.579Z,68.40
2018-01-14T18:03:44.252Z,67.00
2018-01-14T18:06:10.184Z,66.90
2018-01-14T18:08:36.098Z,67.00
2018-01-14T18:11:02.778Z,68.10
2018-01-14T18:13:28.709Z,68.00
2018-01-14T18:15:54.645Z,69.20
2018-01-14T18:18:20.616Z,70.30
2018-01-14T18:20:46.619Z,70.70
2018-01-14T18:23:12.869Z,70.70
2018-01-14T18:25:38.789Z,70.40
2018-01-14T18:28:04.719Z,70.30
2018-01-14T18:30:30.650Z,70.00
2018-01-14T18:32:56.577Z,70.60
2018-01-14T18:35:22.558Z,70.80
2018-01-14T18:37:48.499Z,71.50
2018-01-14T18:40:14.438Z,73.10
2018-01-14T18:42:40.362Z,73.60
2018-01-14T18:45:06.272Z,73.90
2018-01-14T18:47:32.191Z,74.60
2018-01-14T18:49:58.109Z,74.80
2018-01-14T18:52:24.771Z,74.60
2018-01-14T18:54:50.739Z,74.50
2018-01-14T18:57:18.208Z,74.50
2018-01-14T18:59:51.161Z,74.40
2018-01-14T19:02:17.111Z,74.60
2018-01-14T19:04:43.039Z,74.70
2018-01-14T19:07:09.689Z,74.50
2018-01-14T19:09:36.367Z,73.90
2018-01-14T19:12:02.611Z,73.80
2018-01-14T19:14:28.842Z,74.50
2018-01-14T19:16:54.773Z,75.00
2018-01-14T19:19:20.709Z,75.00
2018-01-14T19:21:46.881Z,75.00
2018-01-14T19:24:14.310Z,74.80
2018-01-14T19:26:40.251Z,74.80
2018-01-14T19:29:13.170Z,74.80
2018-01-14T19:31:39.089Z,73.70
2018-01-14T19:34:05.018Z,73.30
2018-01-14T19:36:30.942Z,73.80
2018-01-14T19:38:56.883Z,74.30
2018-01-14T19:41:22.838Z,74.80
2018-01-14T19:43:48.811Z,75.10
2018-01-14T19:46:15.008Z,75.20
2018-01-14T19:48:40.930Z,75.60
2018-01-14T19:51:06.853Z,74.80
2018-01-14T19:53:33.524Z,75.50
2018-01-14T19:55:59.461Z,75.50
2018-01-14T19:58:25.390Z,76.00
2018-01-14T20:00:51.334Z,75.90
2018-01-14T20:03:17.646Z,75.60
2018-01-14T20:05:44.398Z,76.20
2018-01-14T20:08:11.123Z,76.10
2018-01-14T20:10:36.993Z,76.10
2018-01-14T20:13:02.914Z,76.60
2018-01-14T20:15:29.594Z,77.00
2018-01-14T20:17:55.520Z,76.90
2018-01-14T20:20:21.465Z,76.50
2018-01-14T20:22:47.698Z,77.00
2018-01-14T20:25:13.644Z,76.90
2018-01-14T20:27:39.565Z,76.90
2018-01-14T20:30:05.486Z,76.90
2018-01-14T20:32:32.145Z,76.70
2018-01-14T20:34:58.082Z,76.60
2018-01-14T20:37:24.010Z,77.00
2018-01-14T20:39:49.953Z,76.00
2018-01-14T20:42:15.881Z,76.30
2018-01-14T20:44:47.960Z,77.20
2018-01-14T20:47:13.895Z,75.80
2018-01-14T20:49:39.818Z,74.60
2018-01-14T20:52:06.473Z,74.50
2018-01-14T20:54:33.130Z,75.00
2018-01-14T20:56:59.058Z,75.00
2018-01-14T20:59:24.986Z,74.60
2018-01-14T21:01:51.698Z,74.10
2018-01-14T21:04:17.645Z,74.10
2018-01-14T21:06:43.574Z,75.00
2018-01-14T21:09:09.502Z,75.40
2018-01-14T21:11:35.711Z,75.10
2018-01-14T21:14:01.631Z,75.70
2018-01-14T21:16:27.557Z,75.50
2018-01-14T21:18:54.226Z,76.10
2018-01-14T21:21:20.185Z,76.10
2018-01-14T21:23:46.139Z,77.10
2018-01-14T21:26:12.050Z,78.00
2018-01-14T21:28:38.025Z,78.10
2018-01-14T21:31:03.910Z,78.10
2018-01-14T21:33:29.837Z,78.80
2018-01-14T21:35:55.759Z,79.10
2018-01-14T21:38:21.751Z,78.70
2018-01-14T21:40:48.551Z,79.50
2018-01-14T21:43:14.531Z,79.00
2018-01-14T21:45:40.458Z,79.40
2018-01-14T21:48:06.381Z,79.40
2018-01-14T21:50:32.298Z,79.50
2018-01-14T21:52:58.219Z,79.80
2018-01-14T21:55:24.142Z,79.90
2018-01-14T21:57:50.095Z,79.80
2018-01-14T22:00:16.224Z,80.50
2018-01-14T22:02:42.162Z,80.50
2018-01-14T22:05:08.294Z,80.60
2018-01-14T22:07:34.214Z,81.00
2018-01-14T22:10:00.191Z,80.70
2018-01-14T22:12:26.110Z,81.00
2018-01-14T22:14:52.036Z,81.10
2018-01-14T22:17:18.065Z,81.10
2018-01-14T22:19:44.330Z,81.00
2018-01-14T22:22:10.375Z,80.80
2018-01-14T22:24:36.294Z,80.60
2018-01-14T22:27:02.226Z,80.70
2018-01-14T22:29:28.138Z,80.40
2018-01-14T22:31:54.074Z,81.10
2018-01-14T22:34:20.026Z,80.40
2018-01-14T22:36:45.979Z,81.10
2018-01-14T22:39:11.907Z,80.50
2018-01-14T22:41:37.828Z,81.00
2018-01-14T22:44:03.754Z,80.60
2018-01-14T22:46:29.698Z,80.50
2018-01-14T22:48:55.642Z,79.80
2018-01-14T22:51:21.577Z,79.90
2018-01-14T22:53:47.515Z,80.10
2018-01-14T22:56:13.450Z,80.50
2018-01-14T22:58:39.386Z,80.90
2018-01-14T23:01:05.333Z,80.70
2018-01-14T23:03:31.253Z,80.40
2018-01-14T23:05:57.174Z,80.40
2018-01-14T23:08:23.097Z,80.90
2018-01-14T23:10:49.077Z,81.00
2018-01-14T23:13:15.022Z,80.30
2018-01-14T23:15:41.710Z,80.90
2018-01-14T23:18:07.647Z,80.90
2018-01-14T23:20:33.574Z,81.30
2018-01-14T23:22:59.498Z,82.10
2018-01-14T23:25:26.406Z,81.60
2018-01-14T23:27:52.321Z,81.60
2018-01-14T23:30:18.274Z,81.60
2018-01-14T23:32:44.245Z,81.60
2018-01-14T23:35:10.188Z,81.60
2018-01-14T23:37:36.858Z,82.00
2018-01-14T23:40:02.786Z,82.00
2018-01-14T23:42:28.720Z,81.80
2018-01-14T23:44:55.398Z,81.30
2018-01-14T23:47:21.329Z,81.30
2018-01-14T23:49:47.311Z,81.30
2018-01-14T23:52:13.242Z,81.40
2018-01-14T23:54:39.165Z,81.00
2018-01-14T23:57:05.114Z,81.00
2018-01-14T23:59:31.033Z,81.10
